sensor_id;sensor_type;location;lat;lon;timestamp;P1;durP1;ratioP1;P2;durP2;ratioP2
36191;SDS011;22233;42.708;23.360;2023-02-24T00:02:22;7.30;;;4.32;;
36191;SDS011;22233;42.708;23.360;2023-02-24T00:04:48;10.25;;;4.78;;
36191;SDS011;22233;42.708;23.360;2023-02-24T00:07:16;6.70;;;4.40;;
36191;SDS011;22233;42.708;23.360;2023-02-24T00:09:42;6.07;;;3.80;;
36191;SDS011;22233;42.708;23.360;2023-02-24T00:12:09;7.57;;;4.85;;
36191;SDS011;22233;42.708;23.360;2023-02-24T00:14:38;8.82;;;3.95;;
36191;SDS011;22233;42.708;23.360;2023-02-24T00:17:06;8.85;;;4.07;;
36191;SDS011;22233;42.708;23.360;2023-02-24T00:19:32;8.32;;;4.03;;
36191;SDS011;22233;42.708;23.360;2023-02-24T00:21:58;9.05;;;4.63;;
36191;SDS011;22233;42.708;23.360;2023-02-24T00:24:29;8.20;;;4.25;;
36191;SDS011;22233;42.708;23.360;2023-02-24T00:26:55;6.78;;;4.03;;
36191;SDS011;22233;42.708;23.360;2023-02-24T00:29:23;6.60;;;4.03;;
36191;SDS011;22233;42.708;23.360;2023-02-24T00:31:50;6.28;;;3.97;;
36191;SDS011;22233;42.708;23.360;2023-02-24T00:34:23;6.90;;;4.15;;
36191;SDS011;22233;42.708;23.360;2023-02-24T00:36:49;7.78;;;3.72;;
36191;SDS011;22233;42.708;23.360;2023-02-24T00:39:15;7.28;;;4.30;;
36191;SDS011;22233;42.708;23.360;2023-02-24T00:41:41;6.75;;;4.90;;
36191;SDS011;22233;42.708;23.360;2023-02-24T00:44:09;5.30;;;3.90;;
36191;SDS011;22233;42.708;23.360;2023-02-24T00:46:37;6.38;;;3.85;;
36191;SDS011;22233;42.708;23.360;2023-02-24T00:49:11;6.70;;;4.45;;
36191;SDS011;22233;42.708;23.360;2023-02-24T00:51:42;6.22;;;4.03;;
36191;SDS011;22233;42.708;23.360;2023-02-24T00:54:09;6.15;;;4.38;;
36191;SDS011;22233;42.708;23.360;2023-02-24T00:56:39;5.72;;;4.00;;
36191;SDS011;22233;42.708;23.360;2023-02-24T00:59:05;6.88;;;4.30;;
36191;SDS011;22233;42.708;23.360;2023-02-24T01:01:31;6.32;;;5.30;;
36191;SDS011;22233;42.708;23.360;2023-02-24T01:03:58;6.95;;;4.00;;
36191;SDS011;22233;42.708;23.360;2023-02-24T01:06:38;6.32;;;4.28;;
36191;SDS011;22233;42.708;23.360;2023-02-24T01:09:13;6.40;;;4.38;;
36191;SDS011;22233;42.708;23.360;2023-02-24T01:11:40;5.55;;;4.95;;
36191;SDS011;22233;42.708;23.360;2023-02-24T01:14:27;7.68;;;4.80;;
36191;SDS011;22233;42.708;23.360;2023-02-24T01:16:55;7.30;;;5.07;;
36191;SDS011;22233;42.708;23.360;2023-02-24T01:19:22;7.32;;;4.78;;
36191;SDS011;22233;42.708;23.360;2023-02-24T01:21:49;7.18;;;4.68;;
36191;SDS011;22233;42.708;23.360;2023-02-24T01:24:19;6.63;;;4.50;;
36191;SDS011;22233;42.708;23.360;2023-02-24T01:27:05;7.32;;;4.32;;
36191;SDS011;22233;42.708;23.360;2023-02-24T01:29:31;6.90;;;4.20;;
36191;SDS011;22233;42.708;23.360;2023-02-24T01:31:56;6.70;;;4.57;;
36191;SDS011;22233;42.708;23.360;2023-02-24T01:34:26;7.40;;;4.40;;
36191;SDS011;22233;42.708;23.360;2023-02-24T01:36:51;6.30;;;4.40;;
36191;SDS011;22233;42.708;23.360;2023-02-24T01:39:17;9.07;;;4.22;;
36191;SDS011;22233;42.708;23.360;2023-02-24T01:41:43;5.40;;;3.80;;
36191;SDS011;22233;42.708;23.360;2023-02-24T01:46:41;6.57;;;4.10;;
36191;SDS011;22233;42.708;23.360;2023-02-24T01:51:49;7.13;;;4.60;;
36191;SDS011;22233;42.708;23.360;2023-02-24T01:54:20;6.60;;;4.10;;
36191;SDS011;22233;42.708;23.360;2023-02-24T01:56:50;7.53;;;4.50;;
36191;SDS011;22233;42.708;23.360;2023-02-24T01:59:16;4.47;;;3.65;;
36191;SDS011;22233;42.708;23.360;2023-02-24T02:01:44;6.38;;;3.92;;
36191;SDS011;22233;42.708;23.360;2023-02-24T02:07:00;5.82;;;3.83;;
36191;SDS011;22233;42.708;23.360;2023-02-24T02:09:26;5.03;;;3.47;;
36191;SDS011;22233;42.708;23.360;2023-02-24T02:11:53;4.15;;;3.45;;
36191;SDS011;22233;42.708;23.360;2023-02-24T02:14:19;5.70;;;3.72;;
36191;SDS011;22233;42.708;23.360;2023-02-24T02:25:00;6.05;;;4.07;;
36191;SDS011;22233;42.708;23.360;2023-02-24T02:41:41;6.72;;;3.72;;
36191;SDS011;22233;42.708;23.360;2023-02-24T02:44:09;5.10;;;3.30;;
36191;SDS011;22233;42.708;23.360;2023-02-24T02:46:49;6.47;;;3.37;;
36191;SDS011;22233;42.708;23.360;2023-02-24T02:55:24;4.90;;;3.40;;
36191;SDS011;22233;42.708;23.360;2023-02-24T02:58:11;6.30;;;3.63;;
36191;SDS011;22233;42.708;23.360;2023-02-24T03:00:41;5.18;;;2.95;;
36191;SDS011;22233;42.708;23.360;2023-02-24T03:03:22;5.60;;;3.58;;
36191;SDS011;22233;42.708;23.360;2023-02-24T03:05:53;4.20;;;2.83;;
36191;SDS011;22233;42.708;23.360;2023-02-24T03:08:24;5.60;;;3.63;;
36191;SDS011;22233;42.708;23.360;2023-02-24T03:10:55;5.32;;;3.50;;
36191;SDS011;22233;42.708;23.360;2023-02-24T03:13:24;6.05;;;3.47;;
36191;SDS011;22233;42.708;23.360;2023-02-24T03:15:54;5.20;;;3.38;;
36191;SDS011;22233;42.708;23.360;2023-02-24T03:18:28;7.15;;;3.53;;
36191;SDS011;22233;42.708;23.360;2023-02-24T03:21:06;6.80;;;3.90;;
36191;SDS011;22233;42.708;23.360;2023-02-24T03:23:41;5.95;;;3.42;;
36191;SDS011;22233;42.708;23.360;2023-02-24T03:26:55;5.20;;;3.13;;
36191;SDS011;22233;42.708;23.360;2023-02-24T03:31:55;5.30;;;3.72;;
36191;SDS011;22233;42.708;23.360;2023-02-24T03:34:26;4.32;;;2.95;;
36191;SDS011;22233;42.708;23.360;2023-02-24T03:36:53;4.45;;;3.20;;
36191;SDS011;22233;42.708;23.360;2023-02-24T03:39:19;4.57;;;3.45;;
36191;SDS011;22233;42.708;23.360;2023-02-24T03:41:53;4.78;;;3.22;;
36191;SDS011;22233;42.708;23.360;2023-02-24T03:44:22;4.05;;;3.65;;
36191;SDS011;22233;42.708;23.360;2023-02-24T03:46:51;6.20;;;3.10;;
36191;SDS011;22233;42.708;23.360;2023-02-24T03:49:19;5.50;;;3.28;;
36191;SDS011;22233;42.708;23.360;2023-02-24T03:52:27;5.32;;;2.92;;
36191;SDS011;22233;42.708;23.360;2023-02-24T03:57:38;4.63;;;2.85;;
36191;SDS011;22233;42.708;23.360;2023-02-24T04:00:29;4.68;;;2.85;;
36191;SDS011;22233;42.708;23.360;2023-02-24T04:03:19;4.68;;;3.10;;
36191;SDS011;22233;42.708;23.360;2023-02-24T04:06:11;4.53;;;2.70;;
36191;SDS011;22233;42.708;23.360;2023-02-24T04:08:42;3.15;;;2.38;;
36191;SDS011;22233;42.708;23.360;2023-02-24T04:11:16;3.80;;;2.75;;
36191;SDS011;22233;42.708;23.360;2023-02-24T04:13:56;4.00;;;2.55;;
36191;SDS011;22233;42.708;23.360;2023-02-24T04:16:27;3.13;;;2.40;;
36191;SDS011;22233;42.708;23.360;2023-02-24T04:19:03;3.58;;;2.67;;
36191;SDS011;22233;42.708;23.360;2023-02-24T04:21:33;6.03;;;2.90;;
36191;SDS011;22233;42.708;23.360;2023-02-24T04:24:03;3.67;;;2.70;;
36191;SDS011;22233;42.708;23.360;2023-02-24T04:26:35;4.70;;;3.20;;
36191;SDS011;22233;42.708;23.360;2023-02-24T04:29:04;4.32;;;2.70;;
36191;SDS011;22233;42.708;23.360;2023-02-24T04:31:31;3.72;;;2.30;;
36191;SDS011;22233;42.708;23.360;2023-02-24T04:36:26;4.70;;;2.42;;
36191;SDS011;22233;42.708;23.360;2023-02-24T04:38:51;2.85;;;2.10;;
36191;SDS011;22233;42.708;23.360;2023-02-24T04:41:18;3.23;;;2.40;;
36191;SDS011;22233;42.708;23.360;2023-02-24T04:43:47;2.95;;;2.33;;
36191;SDS011;22233;42.708;23.360;2023-02-24T04:46:15;2.72;;;1.98;;
36191;SDS011;22233;42.708;23.360;2023-02-24T04:48:41;5.60;;;2.67;;
36191;SDS011;22233;42.708;23.360;2023-02-24T04:51:06;5.10;;;3.15;;
36191;SDS011;22233;42.708;23.360;2023-02-24T04:53:32;6.70;;;3.03;;
36191;SDS011;22233;42.708;23.360;2023-02-24T04:56:00;4.65;;;3.20;;
36191;SDS011;22233;42.708;23.360;2023-02-24T04:58:33;4.80;;;2.85;;
36191;SDS011;22233;42.708;23.360;2023-02-24T05:01:00;4.90;;;2.33;;
36191;SDS011;22233;42.708;23.360;2023-02-24T05:03:32;4.35;;;2.47;;
36191;SDS011;22233;42.708;23.360;2023-02-24T05:05:59;4.73;;;3.00;;
36191;SDS011;22233;42.708;23.360;2023-02-24T05:08:25;4.30;;;2.67;;
36191;SDS011;22233;42.708;23.360;2023-02-24T05:10:52;5.55;;;2.25;;
36191;SDS011;22233;42.708;23.360;2023-02-24T05:13:19;4.55;;;2.95;;
36191;SDS011;22233;42.708;23.360;2023-02-24T05:15:55;4.65;;;2.60;;
36191;SDS011;22233;42.708;23.360;2023-02-24T05:18:23;4.50;;;2.45;;
36191;SDS011;22233;42.708;23.360;2023-02-24T05:20:50;4.40;;;2.53;;
36191;SDS011;22233;42.708;23.360;2023-02-24T05:23:37;5.22;;;3.28;;
36191;SDS011;22233;42.708;23.360;2023-02-24T05:26:08;5.15;;;3.13;;
36191;SDS011;22233;42.708;23.360;2023-02-24T05:28:38;8.60;;;3.58;;
36191;SDS011;22233;42.708;23.360;2023-02-24T05:31:11;5.47;;;3.28;;
36191;SDS011;22233;42.708;23.360;2023-02-24T05:33:39;5.05;;;3.25;;
36191;SDS011;22233;42.708;23.360;2023-02-24T05:36:13;6.25;;;2.70;;
36191;SDS011;22233;42.708;23.360;2023-02-24T05:38:41;6.18;;;2.45;;
36191;SDS011;22233;42.708;23.360;2023-02-24T05:41:11;6.10;;;3.05;;
36191;SDS011;22233;42.708;23.360;2023-02-24T05:43:42;5.15;;;2.55;;
36191;SDS011;22233;42.708;23.360;2023-02-24T05:46:12;4.53;;;2.58;;
36191;SDS011;22233;42.708;23.360;2023-02-24T05:48:40;4.85;;;2.85;;
36191;SDS011;22233;42.708;23.360;2023-02-24T05:51:06;5.13;;;2.95;;
36191;SDS011;22233;42.708;23.360;2023-02-24T05:53:35;5.10;;;2.67;;
36191;SDS011;22233;42.708;23.360;2023-02-24T05:56:05;5.68;;;2.72;;
36191;SDS011;22233;42.708;23.360;2023-02-24T05:58:34;5.15;;;3.00;;
36191;SDS011;22233;42.708;23.360;2023-02-24T06:01:12;5.00;;;3.00;;
36191;SDS011;22233;42.708;23.360;2023-02-24T06:03:47;5.43;;;2.75;;
36191;SDS011;22233;42.708;23.360;2023-02-24T06:06:15;4.47;;;2.78;;
36191;SDS011;22233;42.708;23.360;2023-02-24T06:08:41;4.63;;;2.58;;
36191;SDS011;22233;42.708;23.360;2023-02-24T06:11:14;5.80;;;2.83;;
36191;SDS011;22233;42.708;23.360;2023-02-24T06:13:42;7.20;;;3.45;;
36191;SDS011;22233;42.708;23.360;2023-02-24T06:16:14;3.53;;;2.45;;
36191;SDS011;22233;42.708;23.360;2023-02-24T06:18:41;4.82;;;2.60;;
36191;SDS011;22233;42.708;23.360;2023-02-24T06:21:08;4.35;;;2.80;;
36191;SDS011;22233;42.708;23.360;2023-02-24T06:23:37;6.18;;;3.00;;
36191;SDS011;22233;42.708;23.360;2023-02-24T06:26:03;4.20;;;2.90;;
36191;SDS011;22233;42.708;23.360;2023-02-24T06:28:35;3.90;;;2.60;;
36191;SDS011;22233;42.708;23.360;2023-02-24T06:31:04;5.18;;;3.33;;
36191;SDS011;22233;42.708;23.360;2023-02-24T06:33:33;5.82;;;3.75;;
36191;SDS011;22233;42.708;23.360;2023-02-24T06:36:00;5.85;;;3.42;;
36191;SDS011;22233;42.708;23.360;2023-02-24T06:40:56;5.57;;;3.00;;
36191;SDS011;22233;42.708;23.360;2023-02-24T06:43:22;4.93;;;2.97;;
36191;SDS011;22233;42.708;23.360;2023-02-24T06:45:47;6.35;;;3.92;;
36191;SDS011;22233;42.708;23.360;2023-02-24T06:48:14;5.53;;;2.90;;
36191;SDS011;22233;42.708;23.360;2023-02-24T06:50:39;6.65;;;3.70;;
36191;SDS011;22233;42.708;23.360;2023-02-24T06:53:05;7.53;;;3.42;;
36191;SDS011;22233;42.708;23.360;2023-02-24T06:55:40;7.90;;;3.33;;
36191;SDS011;22233;42.708;23.360;2023-02-24T06:58:12;7.13;;;3.40;;
36191;SDS011;22233;42.708;23.360;2023-02-24T07:00:40;4.93;;;3.13;;
36191;SDS011;22233;42.708;23.360;2023-02-24T07:03:14;5.22;;;3.20;;
36191;SDS011;22233;42.708;23.360;2023-02-24T07:05:48;4.88;;;3.35;;
36191;SDS011;22233;42.708;23.360;2023-02-24T07:08:22;6.07;;;3.40;;
36191;SDS011;22233;42.708;23.360;2023-02-24T07:10:54;5.70;;;2.97;;
36191;SDS011;22233;42.708;23.360;2023-02-24T07:13:22;5.35;;;3.17;;
36191;SDS011;22233;42.708;23.360;2023-02-24T07:15:49;6.47;;;3.10;;
36191;SDS011;22233;42.708;23.360;2023-02-24T07:18:15;6.50;;;2.95;;
36191;SDS011;22233;42.708;23.360;2023-02-24T07:20:42;6.32;;;3.83;;
36191;SDS011;22233;42.708;23.360;2023-02-24T07:23:10;9.38;;;3.53;;
36191;SDS011;22233;42.708;23.360;2023-02-24T07:25:39;6.78;;;3.47;;
36191;SDS011;22233;42.708;23.360;2023-02-24T07:28:07;5.50;;;3.33;;
36191;SDS011;22233;42.708;23.360;2023-02-24T07:30:33;6.68;;;3.63;;
36191;SDS011;22233;42.708;23.360;2023-02-24T07:32:58;7.32;;;3.75;;
36191;SDS011;22233;42.708;23.360;2023-02-24T07:35:24;5.68;;;3.08;;
36191;SDS011;22233;42.708;23.360;2023-02-24T07:37:50;6.32;;;3.25;;
36191;SDS011;22233;42.708;23.360;2023-02-24T07:40:16;7.60;;;3.13;;
36191;SDS011;22233;42.708;23.360;2023-02-24T07:42:45;6.15;;;3.42;;
36191;SDS011;22233;42.708;23.360;2023-02-24T07:45:12;7.07;;;3.75;;
36191;SDS011;22233;42.708;23.360;2023-02-24T07:47:38;6.93;;;4.40;;
36191;SDS011;22233;42.708;23.360;2023-02-24T07:50:05;6.90;;;3.90;;
36191;SDS011;22233;42.708;23.360;2023-02-24T07:52:37;8.43;;;4.97;;
36191;SDS011;22233;42.708;23.360;2023-02-24T07:55:03;7.43;;;4.03;;
36191;SDS011;22233;42.708;23.360;2023-02-24T07:57:28;9.52;;;4.13;;
36191;SDS011;22233;42.708;23.360;2023-02-24T07:59:57;8.73;;;4.10;;
36191;SDS011;22233;42.708;23.360;2023-02-24T08:02:24;8.88;;;4.20;;
36191;SDS011;22233;42.708;23.360;2023-02-24T08:04:49;8.10;;;4.25;;
36191;SDS011;22233;42.708;23.360;2023-02-24T08:07:16;7.63;;;5.07;;
36191;SDS011;22233;42.708;23.360;2023-02-24T08:09:48;7.60;;;5.10;;
36191;SDS011;22233;42.708;23.360;2023-02-24T08:12:32;7.53;;;4.18;;
36191;SDS011;22233;42.708;23.360;2023-02-24T08:14:59;7.03;;;4.50;;
36191;SDS011;22233;42.708;23.360;2023-02-24T08:17:32;6.15;;;4.38;;
36191;SDS011;22233;42.708;23.360;2023-02-24T08:19:58;8.18;;;4.70;;
36191;SDS011;22233;42.708;23.360;2023-02-24T08:22:36;9.50;;;5.03;;
36191;SDS011;22233;42.708;23.360;2023-02-24T08:25:02;8.73;;;4.68;;
36191;SDS011;22233;42.708;23.360;2023-02-24T08:27:32;7.10;;;4.40;;
36191;SDS011;22233;42.708;23.360;2023-02-24T08:30:03;8.43;;;4.43;;
36191;SDS011;22233;42.708;23.360;2023-02-24T08:35:11;7.22;;;4.53;;
36191;SDS011;22233;42.708;23.360;2023-02-24T08:37:41;6.38;;;4.13;;
36191;SDS011;22233;42.708;23.360;2023-02-24T08:40:28;6.20;;;4.22;;
36191;SDS011;22233;42.708;23.360;2023-02-24T08:43:00;7.38;;;4.00;;
36191;SDS011;22233;42.708;23.360;2023-02-24T08:45:40;8.63;;;4.63;;
36191;SDS011;22233;42.708;23.360;2023-02-24T08:48:08;8.13;;;4.43;;
36191;SDS011;22233;42.708;23.360;2023-02-24T08:50:56;8.23;;;4.30;;
36191;SDS011;22233;42.708;23.360;2023-02-24T08:53:25;8.32;;;4.57;;
36191;SDS011;22233;42.708;23.360;2023-02-24T08:55:55;6.53;;;4.75;;
36191;SDS011;22233;42.708;23.360;2023-02-24T08:58:22;7.68;;;4.47;;
36191;SDS011;22233;42.708;23.360;2023-02-24T09:00:54;7.60;;;4.43;;
36191;SDS011;22233;42.708;23.360;2023-02-24T09:03:23;9.10;;;4.88;;
36191;SDS011;22233;42.708;23.360;2023-02-24T09:06:00;9.63;;;4.72;;
36191;SDS011;22233;42.708;23.360;2023-02-24T09:08:29;8.02;;;4.40;;
36191;SDS011;22233;42.708;23.360;2023-02-24T09:11:03;6.43;;;4.50;;
36191;SDS011;22233;42.708;23.360;2023-02-24T09:13:35;8.68;;;4.18;;
36191;SDS011;22233;42.708;23.360;2023-02-24T09:16:07;6.28;;;4.00;;
36191;SDS011;22233;42.708;23.360;2023-02-24T09:18:40;8.77;;;4.40;;
36191;SDS011;22233;42.708;23.360;2023-02-24T09:21:15;8.15;;;4.43;;
36191;SDS011;22233;42.708;23.360;2023-02-24T09:23:59;8.63;;;4.80;;
36191;SDS011;22233;42.708;23.360;2023-02-24T09:26:31;7.90;;;4.53;;
36191;SDS011;22233;42.708;23.360;2023-02-24T09:29:07;8.35;;;4.85;;
36191;SDS011;22233;42.708;23.360;2023-02-24T09:31:56;9.43;;;4.47;;
36191;SDS011;22233;42.708;23.360;2023-02-24T09:34:33;11.18;;;4.90;;
36191;SDS011;22233;42.708;23.360;2023-02-24T09:37:08;6.80;;;4.63;;
36191;SDS011;22233;42.708;23.360;2023-02-24T09:39:50;9.40;;;4.68;;
36191;SDS011;22233;42.708;23.360;2023-02-24T09:42:42;8.43;;;4.50;;
36191;SDS011;22233;42.708;23.360;2023-02-24T09:45:15;6.60;;;4.68;;
36191;SDS011;22233;42.708;23.360;2023-02-24T09:47:57;7.18;;;4.65;;
36191;SDS011;22233;42.708;23.360;2023-02-24T09:50:34;8.10;;;5.45;;
36191;SDS011;22233;42.708;23.360;2023-02-24T09:53:25;8.07;;;4.70;;
36191;SDS011;22233;42.708;23.360;2023-02-24T09:56:04;9.15;;;5.00;;
36191;SDS011;22233;42.708;23.360;2023-02-24T09:58:51;8.27;;;4.72;;
36191;SDS011;22233;42.708;23.360;2023-02-24T10:06:56;8.57;;;5.80;;
36191;SDS011;22233;42.708;23.360;2023-02-24T10:09:37;7.07;;;4.72;;
36191;SDS011;22233;42.708;23.360;2023-02-24T10:14:49;8.75;;;5.15;;
36191;SDS011;22233;42.708;23.360;2023-02-24T10:17:40;7.82;;;5.28;;
36191;SDS011;22233;42.708;23.360;2023-02-24T10:20:18;11.27;;;5.50;;
36191;SDS011;22233;42.708;23.360;2023-02-24T10:31:26;12.05;;;6.10;;
36191;SDS011;22233;42.708;23.360;2023-02-24T10:34:09;9.73;;;5.32;;
36191;SDS011;22233;42.708;23.360;2023-02-24T10:36:50;10.80;;;5.35;;
36191;SDS011;22233;42.708;23.360;2023-02-24T10:39:20;8.43;;;5.03;;
36191;SDS011;22233;42.708;23.360;2023-02-24T10:44:24;10.73;;;6.28;;
36191;SDS011;22233;42.708;23.360;2023-02-24T10:47:03;17.63;;;6.80;;
36191;SDS011;22233;42.708;23.360;2023-02-24T10:49:40;11.38;;;6.22;;
36191;SDS011;22233;42.708;23.360;2023-02-24T10:52:09;14.00;;;6.70;;
36191;SDS011;22233;42.708;23.360;2023-02-24T10:54:57;9.10;;;5.50;;
36191;SDS011;22233;42.708;23.360;2023-02-24T10:57:32;10.25;;;6.00;;
36191;SDS011;22233;42.708;23.360;2023-02-24T11:00:18;8.45;;;5.68;;
36191;SDS011;22233;42.708;23.360;2023-02-24T11:03:05;8.05;;;5.57;;
36191;SDS011;22233;42.708;23.360;2023-02-24T11:05:41;8.77;;;5.32;;
36191;SDS011;22233;42.708;23.360;2023-02-24T11:08:29;8.90;;;6.10;;
36191;SDS011;22233;42.708;23.360;2023-02-24T11:11:17;9.43;;;5.35;;
36191;SDS011;22233;42.708;23.360;2023-02-24T11:13:58;10.00;;;5.45;;
36191;SDS011;22233;42.708;23.360;2023-02-24T11:16:48;11.90;;;6.22;;
36191;SDS011;22233;42.708;23.360;2023-02-24T11:19:44;11.05;;;6.05;;
36191;SDS011;22233;42.708;23.360;2023-02-24T11:22:15;9.18;;;6.15;;
36191;SDS011;22233;42.708;23.360;2023-02-24T11:24:44;7.82;;;5.97;;
36191;SDS011;22233;42.708;23.360;2023-02-24T11:27:10;8.25;;;5.68;;
36191;SDS011;22233;42.708;23.360;2023-02-24T11:37:40;8.90;;;5.63;;
36191;SDS011;22233;42.708;23.360;2023-02-24T11:40:20;9.10;;;6.07;;
36191;SDS011;22233;42.708;23.360;2023-02-24T11:42:50;9.98;;;6.43;;
36191;SDS011;22233;42.708;23.360;2023-02-24T11:50:37;9.60;;;6.20;;
36191;SDS011;22233;42.708;23.360;2023-02-24T11:53:31;9.68;;;6.28;;
36191;SDS011;22233;42.708;23.360;2023-02-24T11:58:30;9.85;;;6.60;;
36191;SDS011;22233;42.708;23.360;2023-02-24T12:01:20;8.88;;;6.05;;
36191;SDS011;22233;42.708;23.360;2023-02-24T12:09:48;7.68;;;5.70;;
36191;SDS011;22233;42.708;23.360;2023-02-24T12:13:05;11.68;;;6.00;;
36191;SDS011;22233;42.708;23.360;2023-02-24T12:15:37;7.80;;;5.05;;
36191;SDS011;22233;42.708;23.360;2023-02-24T12:18:18;10.25;;;5.68;;
36191;SDS011;22233;42.708;23.360;2023-02-24T12:28:57;9.15;;;5.95;;
36191;SDS011;22233;42.708;23.360;2023-02-24T12:31:53;7.75;;;5.57;;
36191;SDS011;22233;42.708;23.360;2023-02-24T12:37:31;12.05;;;5.90;;
36191;SDS011;22233;42.708;23.360;2023-02-24T12:40:12;8.82;;;6.00;;
36191;SDS011;22233;42.708;23.360;2023-02-24T12:42:59;9.55;;;5.65;;
36191;SDS011;22233;42.708;23.360;2023-02-24T12:45:44;7.65;;;5.57;;
36191;SDS011;22233;42.708;23.360;2023-02-24T12:51:19;8.05;;;5.63;;
36191;SDS011;22233;42.708;23.360;2023-02-24T12:59:09;11.57;;;7.03;;
36191;SDS011;22233;42.708;23.360;2023-02-24T13:01:44;12.40;;;8.10;;
36191;SDS011;22233;42.708;23.360;2023-02-24T13:04:35;12.68;;;8.45;;
36191;SDS011;22233;42.708;23.360;2023-02-24T13:15:54;16.30;;;8.35;;
36191;SDS011;22233;42.708;23.360;2023-02-24T13:18:22;11.95;;;7.57;;
36191;SDS011;22233;42.708;23.360;2023-02-24T13:23:30;12.70;;;8.48;;
36191;SDS011;22233;42.708;23.360;2023-02-24T13:25:56;10.75;;;7.55;;
36191;SDS011;22233;42.708;23.360;2023-02-24T13:28:35;15.63;;;8.63;;
36191;SDS011;22233;42.708;23.360;2023-02-24T13:31:06;12.30;;;8.02;;
36191;SDS011;22233;42.708;23.360;2023-02-24T13:33:37;12.25;;;7.88;;
36191;SDS011;22233;42.708;23.360;2023-02-24T13:38:47;11.20;;;7.55;;
36191;SDS011;22233;42.708;23.360;2023-02-24T13:46:22;12.98;;;9.07;;
36191;SDS011;22233;42.708;23.360;2023-02-24T14:02:00;13.18;;;8.20;;
36191;SDS011;22233;42.708;23.360;2023-02-24T14:04:36;12.77;;;8.05;;
36191;SDS011;22233;42.708;23.360;2023-02-24T14:07:09;13.88;;;9.00;;
36191;SDS011;22233;42.708;23.360;2023-02-24T14:09:45;13.73;;;9.25;;
36191;SDS011;22233;42.708;23.360;2023-02-24T14:12:14;13.55;;;8.85;;
36191;SDS011;22233;42.708;23.360;2023-02-24T14:14:43;13.45;;;8.00;;
36191;SDS011;22233;42.708;23.360;2023-02-24T14:17:27;14.57;;;9.65;;
36191;SDS011;22233;42.708;23.360;2023-02-24T14:19:54;14.25;;;8.88;;
36191;SDS011;22233;42.708;23.360;2023-02-24T14:25:02;14.43;;;9.15;;
36191;SDS011;22233;42.708;23.360;2023-02-24T14:27:29;14.45;;;9.43;;
36191;SDS011;22233;42.708;23.360;2023-02-24T14:29:55;13.73;;;9.05;;
36191;SDS011;22233;42.708;23.360;2023-02-24T14:32:22;15.60;;;9.07;;
36191;SDS011;22233;42.708;23.360;2023-02-24T14:34:49;15.73;;;9.57;;
36191;SDS011;22233;42.708;23.360;2023-02-24T14:37:16;19.27;;;10.18;;
36191;SDS011;22233;42.708;23.360;2023-02-24T14:39:54;16.33;;;9.13;;
36191;SDS011;22233;42.708;23.360;2023-02-24T14:42:21;16.88;;;11.25;;
36191;SDS011;22233;42.708;23.360;2023-02-24T14:44:48;23.60;;;15.10;;
36191;SDS011;22233;42.708;23.360;2023-02-24T14:47:16;22.00;;;14.38;;
36191;SDS011;22233;42.708;23.360;2023-02-24T14:49:54;25.50;;;15.38;;
36191;SDS011;22233;42.708;23.360;2023-02-24T14:54:59;24.02;;;12.90;;
36191;SDS011;22233;42.708;23.360;2023-02-24T14:57:31;24.42;;;12.32;;
36191;SDS011;22233;42.708;23.360;2023-02-24T15:00:04;20.63;;;11.90;;
36191;SDS011;22233;42.708;23.360;2023-02-24T15:02:36;23.88;;;11.93;;
36191;SDS011;22233;42.708;23.360;2023-02-24T15:05:07;20.52;;;11.82;;
36191;SDS011;22233;42.708;23.360;2023-02-24T15:07:35;21.60;;;11.45;;
36191;SDS011;22233;42.708;23.360;2023-02-24T15:10:02;25.63;;;12.85;;
36191;SDS011;22233;42.708;23.360;2023-02-24T15:14:59;17.85;;;10.35;;
36191;SDS011;22233;42.708;23.360;2023-02-24T15:17:30;18.20;;;11.68;;
36191;SDS011;22233;42.708;23.360;2023-02-24T15:19:56;17.30;;;11.05;;
36191;SDS011;22233;42.708;23.360;2023-02-24T15:22:26;17.83;;;11.50;;
36191;SDS011;22233;42.708;23.360;2023-02-24T15:27:56;18.13;;;10.63;;
36191;SDS011;22233;42.708;23.360;2023-02-24T15:30:25;17.98;;;11.02;;
36191;SDS011;22233;42.708;23.360;2023-02-24T15:32:59;16.67;;;10.88;;
36191;SDS011;22233;42.708;23.360;2023-02-24T15:35:33;16.52;;;9.70;;
36191;SDS011;22233;42.708;23.360;2023-02-24T15:38:01;19.52;;;10.90;;
36191;SDS011;22233;42.708;23.360;2023-02-24T15:40:28;23.42;;;12.27;;
36191;SDS011;22233;42.708;23.360;2023-02-24T15:42:57;20.02;;;11.10;;
36191;SDS011;22233;42.708;23.360;2023-02-24T15:45:34;17.85;;;11.50;;
36191;SDS011;22233;42.708;23.360;2023-02-24T15:48:03;17.45;;;10.95;;
36191;SDS011;22233;42.708;23.360;2023-02-24T15:50:44;22.58;;;11.50;;
36191;SDS011;22233;42.708;23.360;2023-02-24T15:53:10;17.35;;;10.32;;
36191;SDS011;22233;42.708;23.360;2023-02-24T15:55:37;25.25;;;12.30;;
36191;SDS011;22233;42.708;23.360;2023-02-24T15:58:10;26.25;;;12.88;;
36191;SDS011;22233;42.708;23.360;2023-02-24T16:00:39;24.13;;;13.68;;
36191;SDS011;22233;42.708;23.360;2023-02-24T16:03:04;20.83;;;12.48;;
36191;SDS011;22233;42.708;23.360;2023-02-24T16:05:30;20.83;;;13.38;;
36191;SDS011;22233;42.708;23.360;2023-02-24T16:07:55;21.90;;;11.95;;
36191;SDS011;22233;42.708;23.360;2023-02-24T16:10:23;25.13;;;13.02;;
36191;SDS011;22233;42.708;23.360;2023-02-24T16:12:52;24.63;;;13.45;;
36191;SDS011;22233;42.708;23.360;2023-02-24T16:15:25;29.30;;;15.50;;
36191;SDS011;22233;42.708;23.360;2023-02-24T16:17:53;33.00;;;16.98;;
36191;SDS011;22233;42.708;23.360;2023-02-24T16:20:23;27.40;;;16.10;;
36191;SDS011;22233;42.708;23.360;2023-02-24T16:22:59;31.17;;;16.05;;
36191;SDS011;22233;42.708;23.360;2023-02-24T16:25:26;24.13;;;14.63;;
36191;SDS011;22233;42.708;23.360;2023-02-24T16:30:23;26.23;;;14.50;;
36191;SDS011;22233;42.708;23.360;2023-02-24T16:32:50;24.40;;;14.85;;
36191;SDS011;22233;42.708;23.360;2023-02-24T16:35:16;22.83;;;13.02;;
36191;SDS011;22233;42.708;23.360;2023-02-24T16:37:43;28.48;;;14.00;;
36191;SDS011;22233;42.708;23.360;2023-02-24T16:40:20;25.90;;;13.95;;
36191;SDS011;22233;42.708;23.360;2023-02-24T16:42:52;23.10;;;13.02;;
36191;SDS011;22233;42.708;23.360;2023-02-24T16:45:18;29.05;;;15.27;;
36191;SDS011;22233;42.708;23.360;2023-02-24T16:47:45;23.38;;;14.90;;
36191;SDS011;22233;42.708;23.360;2023-02-24T16:50:17;29.92;;;17.75;;
36191;SDS011;22233;42.708;23.360;2023-02-24T16:52:45;35.00;;;19.70;;
36191;SDS011;22233;42.708;23.360;2023-02-24T16:55:11;34.28;;;19.88;;
36191;SDS011;22233;42.708;23.360;2023-02-24T16:57:38;35.38;;;21.73;;
36191;SDS011;22233;42.708;23.360;2023-02-24T17:00:04;36.22;;;21.15;;
36191;SDS011;22233;42.708;23.360;2023-02-24T17:02:30;36.58;;;19.58;;
36191;SDS011;22233;42.708;23.360;2023-02-24T17:04:55;38.25;;;20.65;;
36191;SDS011;22233;42.708;23.360;2023-02-24T17:07:21;36.88;;;23.45;;
36191;SDS011;22233;42.708;23.360;2023-02-24T17:09:46;36.45;;;21.40;;
36191;SDS011;22233;42.708;23.360;2023-02-24T17:12:12;28.23;;;18.40;;
36191;SDS011;22233;42.708;23.360;2023-02-24T17:14:39;26.67;;;16.95;;
36191;SDS011;22233;42.708;23.360;2023-02-24T17:17:04;26.77;;;15.15;;
36191;SDS011;22233;42.708;23.360;2023-02-24T17:19:30;24.05;;;14.90;;
36191;SDS011;22233;42.708;23.360;2023-02-24T17:21:55;26.27;;;14.70;;
36191;SDS011;22233;42.708;23.360;2023-02-24T17:24:21;23.83;;;14.25;;
36191;SDS011;22233;42.708;23.360;2023-02-24T17:26:46;25.00;;;14.10;;
36191;SDS011;22233;42.708;23.360;2023-02-24T17:29:12;23.73;;;13.15;;
36191;SDS011;22233;42.708;23.360;2023-02-24T17:31:38;25.73;;;14.20;;